Terminal Aerodrome Forecast
Issued by NWS

Home | Current Version | Previous Version | Text Only | Print | Product List | Glossary On
Versions: 1 2 3 4 5 6 7 8 9 10 11 12 13 14 15 16 17 18 19 20 21 22 23 24 25
000
FTUS43 KGRR 250540
TAFJXN
TAF
KJXN 250540Z 2506/2606 27013G20KT P6SM OVC010
     FM251400 27014G24KT 4SM -SHSN BR OVC020
     FM260000 27016G22KT P6SM -SHSN BKN035=

USA.gov is the U.S. government's official web portal to all federal, state and local government web resources and services.